sensor_id;sensor_type;location;lat;lon;timestamp;temperature;humidity
1415;DHT22;702;49.466;11.086;2023-07-29T00:00:59;18.10;99.90
1415;DHT22;702;49.466;11.086;2023-07-29T00:03:27;18.10;99.90
1415;DHT22;702;49.466;11.086;2023-07-29T00:05:55;18.20;99.90
1415;DHT22;702;49.466;11.086;2023-07-29T00:08:23;18.20;99.90
1415;DHT22;702;49.466;11.086;2023-07-29T00:10:50;18.20;99.90
1415;DHT22;702;49.466;11.086;2023-07-29T00:13:20;18.10;99.90
1415;DHT22;702;49.466;11.086;2023-07-29T00:15:47;18.10;99.90
1415;DHT22;702;49.466;11.086;2023-07-29T00:18:14;18.00;99.90
1415;DHT22;702;49.466;11.086;2023-07-29T00:20:42;18.20;99.90
1415;DHT22;702;49.466;11.086;2023-07-29T00:23:09;18.30;99.90
1415;DHT22;702;49.466;11.086;2023-07-29T00:25:36;18.60;99.90
1415;DHT22;702;49.466;11.086;2023-07-29T00:28:04;18.90;99.90
1415;DHT22;702;49.466;11.086;2023-07-29T00:30:32;19.10;98.80
1415;DHT22;702;49.466;11.086;2023-07-29T00:33:01;19.10;98.20
1415;DHT22;702;49.466;11.086;2023-07-29T00:35:28;19.10;97.70
1415;DHT22;702;49.466;11.086;2023-07-29T00:37:55;19.10;97.40
1415;DHT22;702;49.466;11.086;2023-07-29T00:40:22;19.30;96.90
1415;DHT22;702;49.466;11.086;2023-07-29T00:42:50;19.30;96.70
1415;DHT22;702;49.466;11.086;2023-07-29T00:45:18;19.30;97.00
1415;DHT22;702;49.466;11.086;2023-07-29T00:47:47;19.20;96.50
1415;DHT22;702;49.466;11.086;2023-07-29T00:50:15;19.20;97.80
1415;DHT22;702;49.466;11.086;2023-07-29T00:52:42;19.30;97.40
1415;DHT22;702;49.466;11.086;2023-07-29T00:55:10;19.40;96.10
1415;DHT22;702;49.466;11.086;2023-07-29T00:57:37;19.30;96.50
1415;DHT22;702;49.466;11.086;2023-07-29T01:00:09;19.20;96.70
1415;DHT22;702;49.466;11.086;2023-07-29T01:02:37;18.80;98.50
1415;DHT22;702;49.466;11.086;2023-07-29T01:05:06;19.00;98.20
1415;DHT22;702;49.466;11.086;2023-07-29T01:07:39;19.20;96.90
1415;DHT22;702;49.466;11.086;2023-07-29T01:10:23;19.00;97.60
1415;DHT22;702;49.466;11.086;2023-07-29T01:13:02;19.20;96.70
1415;DHT22;702;49.466;11.086;2023-07-29T01:15:38;19.10;96.30
1415;DHT22;702;49.466;11.086;2023-07-29T01:18:15;18.80;97.90
1415;DHT22;702;49.466;11.086;2023-07-29T01:20:48;18.40;99.90
1415;DHT22;702;49.466;11.086;2023-07-29T01:23:23;18.50;99.90
1415;DHT22;702;49.466;11.086;2023-07-29T01:25:51;18.20;99.90
1415;DHT22;702;49.466;11.086;2023-07-29T01:28:18;18.10;99.90
1415;DHT22;702;49.466;11.086;2023-07-29T01:30:49;17.90;99.90
1415;DHT22;702;49.466;11.086;2023-07-29T01:33:25;17.70;99.90
1415;DHT22;702;49.466;11.086;2023-07-29T01:35:58;17.70;99.90
1415;DHT22;702;49.466;11.086;2023-07-29T01:38:33;17.70;99.90
1415;DHT22;702;49.466;11.086;2023-07-29T01:41:04;17.90;99.90
1415;DHT22;702;49.466;11.086;2023-07-29T01:43:33;18.00;99.90
1415;DHT22;702;49.466;11.086;2023-07-29T01:46:05;17.90;99.90
1415;DHT22;702;49.466;11.086;2023-07-29T01:48:32;18.20;99.90
1415;DHT22;702;49.466;11.086;2023-07-29T01:50:59;18.10;99.90
1415;DHT22;702;49.466;11.086;2023-07-29T01:53:27;18.00;99.90
1415;DHT22;702;49.466;11.086;2023-07-29T01:55:55;18.10;99.90
1415;DHT22;702;49.466;11.086;2023-07-29T01:58:23;18.20;99.90
1415;DHT22;702;49.466;11.086;2023-07-29T02:00:51;18.30;99.90
1415;DHT22;702;49.466;11.086;2023-07-29T02:03:18;18.40;99.90
1415;DHT22;702;49.466;11.086;2023-07-29T02:05:45;18.60;99.90
1415;DHT22;702;49.466;11.086;2023-07-29T02:08:13;18.40;99.70
1415;DHT22;702;49.466;11.086;2023-07-29T02:10:40;18.50;99.90
1415;DHT22;702;49.466;11.086;2023-07-29T02:13:12;18.30;99.90
1415;DHT22;702;49.466;11.086;2023-07-29T02:15:39;18.30;99.90
1415;DHT22;702;49.466;11.086;2023-07-29T02:18:06;18.20;99.90
1415;DHT22;702;49.466;11.086;2023-07-29T02:20:34;18.10;99.90
1415;DHT22;702;49.466;11.086;2023-07-29T02:23:01;18.10;99.90
1415;DHT22;702;49.466;11.086;2023-07-29T02:25:28;18.20;99.90
1415;DHT22;702;49.466;11.086;2023-07-29T02:27:56;18.30;99.90
1415;DHT22;702;49.466;11.086;2023-07-29T02:30:24;18.00;99.90
1415;DHT22;702;49.466;11.086;2023-07-29T02:32:51;17.80;99.90
1415;DHT22;702;49.466;11.086;2023-07-29T02:35:19;17.70;99.90
1415;DHT22;702;49.466;11.086;2023-07-29T02:37:46;17.60;99.90
1415;DHT22;702;49.466;11.086;2023-07-29T02:40:13;17.50;99.90
1415;DHT22;702;49.466;11.086;2023-07-29T02:42:41;17.30;99.90
1415;DHT22;702;49.466;11.086;2023-07-29T02:45:08;17.30;99.90
1415;DHT22;702;49.466;11.086;2023-07-29T02:47:38;17.20;99.90
1415;DHT22;702;49.466;11.086;2023-07-29T02:50:06;17.20;99.90
1415;DHT22;702;49.466;11.086;2023-07-29T02:52:34;17.10;99.90
1415;DHT22;702;49.466;11.086;2023-07-29T02:55:01;17.30;99.90
1415;DHT22;702;49.466;11.086;2023-07-29T02:57:28;17.20;99.90
1415;DHT22;702;49.466;11.086;2023-07-29T02:59:55;17.10;99.90
1415;DHT22;702;49.466;11.086;2023-07-29T03:02:23;17.00;99.90
1415;DHT22;702;49.466;11.086;2023-07-29T03:04:51;17.10;99.90
1415;DHT22;702;49.466;11.086;2023-07-29T03:07:18;17.40;99.90
1415;DHT22;702;49.466;11.086;2023-07-29T03:09:46;17.40;99.90
1415;DHT22;702;49.466;11.086;2023-07-29T03:12:13;17.40;99.90
1415;DHT22;702;49.466;11.086;2023-07-29T03:14:40;17.60;99.90
1415;DHT22;702;49.466;11.086;2023-07-29T03:17:08;17.80;99.90
1415;DHT22;702;49.466;11.086;2023-07-29T03:19:35;17.80;99.90
1415;DHT22;702;49.466;11.086;2023-07-29T03:22:04;17.90;99.90
1415;DHT22;702;49.466;11.086;2023-07-29T03:24:31;18.10;99.90
1415;DHT22;702;49.466;11.086;2023-07-29T03:26:58;18.10;99.90
1415;DHT22;702;49.466;11.086;2023-07-29T03:29:25;18.20;99.30
1415;DHT22;702;49.466;11.086;2023-07-29T03:31:53;18.00;99.90
1415;DHT22;702;49.466;11.086;2023-07-29T03:34:21;17.90;99.90
1415;DHT22;702;49.466;11.086;2023-07-29T03:36:48;17.70;99.90
1415;DHT22;702;49.466;11.086;2023-07-29T03:39:17;17.80;99.90
1415;DHT22;702;49.466;11.086;2023-07-29T03:41:44;17.90;99.90
1415;DHT22;702;49.466;11.086;2023-07-29T03:44:11;17.80;99.90
1415;DHT22;702;49.466;11.086;2023-07-29T03:46:39;17.90;99.90
1415;DHT22;702;49.466;11.086;2023-07-29T03:49:06;18.20;99.90
1415;DHT22;702;49.466;11.086;2023-07-29T03:51:33;18.30;99.70
1415;DHT22;702;49.466;11.086;2023-07-29T03:54:01;18.40;98.10
1415;DHT22;702;49.466;11.086;2023-07-29T03:56:29;18.40;99.00
1415;DHT22;702;49.466;11.086;2023-07-29T03:59:02;18.40;98.50
1415;DHT22;702;49.466;11.086;2023-07-29T04:01:30;18.60;97.40
1415;DHT22;702;49.466;11.086;2023-07-29T04:03:58;18.80;96.50
1415;DHT22;702;49.466;11.086;2023-07-29T04:06:25;18.90;95.90
1415;DHT22;702;49.466;11.086;2023-07-29T04:08:53;19.10;95.20
1415;DHT22;702;49.466;11.086;2023-07-29T04:11:21;19.30;94.40
1415;DHT22;702;49.466;11.086;2023-07-29T04:13:49;19.50;93.80
1415;DHT22;702;49.466;11.086;2023-07-29T04:16:17;19.70;93.00
1415;DHT22;702;49.466;11.086;2023-07-29T04:18:44;19.80;92.90
1415;DHT22;702;49.466;11.086;2023-07-29T04:21:11;19.80;92.80
1415;DHT22;702;49.466;11.086;2023-07-29T04:23:38;19.80;92.60
1415;DHT22;702;49.466;11.086;2023-07-29T04:26:06;19.80;92.80
1415;DHT22;702;49.466;11.086;2023-07-29T04:28:33;19.80;92.60
1415;DHT22;702;49.466;11.086;2023-07-29T04:31:04;20.00;92.30
1415;DHT22;702;49.466;11.086;2023-07-29T04:33:31;20.60;91.50
1415;DHT22;702;49.466;11.086;2023-07-29T04:35:58;21.40;90.30
1415;DHT22;702;49.466;11.086;2023-07-29T04:38:31;22.10;89.10
1415;DHT22;702;49.466;11.086;2023-07-29T04:40:59;22.50;87.60
1415;DHT22;702;49.466;11.086;2023-07-29T04:43:27;22.70;87.20
1415;DHT22;702;49.466;11.086;2023-07-29T04:45:54;23.20;86.00
1415;DHT22;702;49.466;11.086;2023-07-29T04:48:23;23.00;85.80
1415;DHT22;702;49.466;11.086;2023-07-29T04:50:50;23.20;85.40
1415;DHT22;702;49.466;11.086;2023-07-29T04:53:17;22.80;85.90
1415;DHT22;702;49.466;11.086;2023-07-29T04:55:45;22.90;85.60
1415;DHT22;702;49.466;11.086;2023-07-29T04:58:12;24.20;83.80
1415;DHT22;702;49.466;11.086;2023-07-29T05:00:39;24.80;82.30
1415;DHT22;702;49.466;11.086;2023-07-29T05:03:06;25.10;81.00
1415;DHT22;702;49.466;11.086;2023-07-29T05:05:34;24.70;81.20
1415;DHT22;702;49.466;11.086;2023-07-29T05:08:02;24.40;81.10
1415;DHT22;702;49.466;11.086;2023-07-29T05:10:29;23.40;82.50
1415;DHT22;702;49.466;11.086;2023-07-29T05:12:56;22.60;84.20
1415;DHT22;702;49.466;11.086;2023-07-29T05:15:24;22.00;85.40
1415;DHT22;702;49.466;11.086;2023-07-29T05:17:51;21.30;87.50
1415;DHT22;702;49.466;11.086;2023-07-29T05:20:18;21.30;87.90
1415;DHT22;702;49.466;11.086;2023-07-29T05:22:46;21.20;88.30
1415;DHT22;702;49.466;11.086;2023-07-29T05:25:13;21.10;88.40
1415;DHT22;702;49.466;11.086;2023-07-29T05:27:41;20.80;89.40
1415;DHT22;702;49.466;11.086;2023-07-29T05:30:08;20.90;89.00
1415;DHT22;702;49.466;11.086;2023-07-29T05:32:36;20.80;89.60
1415;DHT22;702;49.466;11.086;2023-07-29T05:35:05;21.00;89.60
1415;DHT22;702;49.466;11.086;2023-07-29T05:37:32;21.00;89.40
1415;DHT22;702;49.466;11.086;2023-07-29T05:40:02;21.00;89.40
1415;DHT22;702;49.466;11.086;2023-07-29T05:42:29;20.80;89.70
1415;DHT22;702;49.466;11.086;2023-07-29T05:44:56;20.90;89.70
1415;DHT22;702;49.466;11.086;2023-07-29T05:47:24;21.00;89.60
1415;DHT22;702;49.466;11.086;2023-07-29T05:49:51;21.20;88.90
1415;DHT22;702;49.466;11.086;2023-07-29T05:52:18;21.20;88.80
1415;DHT22;702;49.466;11.086;2023-07-29T05:54:46;21.50;88.90
1415;DHT22;702;49.466;11.086;2023-07-29T05:57:14;21.50;88.40
1415;DHT22;702;49.466;11.086;2023-07-29T05:59:42;21.40;88.40
1415;DHT22;702;49.466;11.086;2023-07-29T06:02:09;21.50;88.20
1415;DHT22;702;49.466;11.086;2023-07-29T06:04:37;21.60;88.20
1415;DHT22;702;49.466;11.086;2023-07-29T06:07:04;21.70;88.10
1415;DHT22;702;49.466;11.086;2023-07-29T06:09:32;21.70;88.00
1415;DHT22;702;49.466;11.086;2023-07-29T06:11:59;21.40;88.20
1415;DHT22;702;49.466;11.086;2023-07-29T06:14:27;21.40;88.50
1415;DHT22;702;49.466;11.086;2023-07-29T06:16:55;21.20;89.00
1415;DHT22;702;49.466;11.086;2023-07-29T06:19:22;20.80;89.70
1415;DHT22;702;49.466;11.086;2023-07-29T06:21:49;20.60;90.10
1415;DHT22;702;49.466;11.086;2023-07-29T06:24:16;20.30;90.50
1415;DHT22;702;49.466;11.086;2023-07-29T06:26:44;20.20;90.80
1415;DHT22;702;49.466;11.086;2023-07-29T06:29:11;20.20;91.00
1415;DHT22;702;49.466;11.086;2023-07-29T06:31:39;20.10;91.10
1415;DHT22;702;49.466;11.086;2023-07-29T06:34:06;20.10;91.50
1415;DHT22;702;49.466;11.086;2023-07-29T06:36:34;19.80;92.30
1415;DHT22;702;49.466;11.086;2023-07-29T06:39:01;19.90;92.40
1415;DHT22;702;49.466;11.086;2023-07-29T06:41:28;20.10;92.00
1415;DHT22;702;49.466;11.086;2023-07-29T06:43:56;20.10;92.10
1415;DHT22;702;49.466;11.086;2023-07-29T06:46:23;19.90;92.60
1415;DHT22;702;49.466;11.086;2023-07-29T06:48:52;19.70;93.80
1415;DHT22;702;49.466;11.086;2023-07-29T06:51:19;19.30;96.20
1415;DHT22;702;49.466;11.086;2023-07-29T06:53:46;19.10;99.30
1415;DHT22;702;49.466;11.086;2023-07-29T06:56:14;18.80;99.90
1415;DHT22;702;49.466;11.086;2023-07-29T06:58:41;18.40;99.90
1415;DHT22;702;49.466;11.086;2023-07-29T07:01:09;18.20;99.90
1415;DHT22;702;49.466;11.086;2023-07-29T07:03:37;18.10;99.90
1415;DHT22;702;49.466;11.086;2023-07-29T07:06:05;18.20;99.90
1415;DHT22;702;49.466;11.086;2023-07-29T07:08:33;18.20;99.90
1415;DHT22;702;49.466;11.086;2023-07-29T07:11:00;18.10;99.90
1415;DHT22;702;49.466;11.086;2023-07-29T07:13:28;18.10;99.90
1415;DHT22;702;49.466;11.086;2023-07-29T07:15:55;18.10;99.90
1415;DHT22;702;49.466;11.086;2023-07-29T07:18:23;18.00;99.90
1415;DHT22;702;49.466;11.086;2023-07-29T07:20:51;18.10;99.90
1415;DHT22;702;49.466;11.086;2023-07-29T07:23:20;18.20;99.90
1415;DHT22;702;49.466;11.086;2023-07-29T07:25:47;18.40;99.90
1415;DHT22;702;49.466;11.086;2023-07-29T07:28:14;18.60;99.90
1415;DHT22;702;49.466;11.086;2023-07-29T07:30:41;18.70;99.90
1415;DHT22;702;49.466;11.086;2023-07-29T07:33:08;18.90;99.90
1415;DHT22;702;49.466;11.086;2023-07-29T07:35:36;19.00;99.90
1415;DHT22;702;49.466;11.086;2023-07-29T07:38:03;19.20;99.90
1415;DHT22;702;49.466;11.086;2023-07-29T07:40:34;19.40;99.90
1415;DHT22;702;49.466;11.086;2023-07-29T07:43:01;19.70;99.90
1415;DHT22;702;49.466;11.086;2023-07-29T07:45:29;19.80;99.90
1415;DHT22;702;49.466;11.086;2023-07-29T07:47:56;20.10;98.60
1415;DHT22;702;49.466;11.086;2023-07-29T07:50:23;20.20;96.80
1415;DHT22;702;49.466;11.086;2023-07-29T07:52:51;20.10;96.90
1415;DHT22;702;49.466;11.086;2023-07-29T07:55:18;20.30;97.20
1415;DHT22;702;49.466;11.086;2023-07-29T07:57:47;20.20;97.60
1415;DHT22;702;49.466;11.086;2023-07-29T08:00:14;20.10;97.10
1415;DHT22;702;49.466;11.086;2023-07-29T08:02:44;20.00;98.30
1415;DHT22;702;49.466;11.086;2023-07-29T08:05:11;19.90;98.70
1415;DHT22;702;49.466;11.086;2023-07-29T08:07:39;19.80;99.60
1415;DHT22;702;49.466;11.086;2023-07-29T08:10:07;19.60;99.90
1415;DHT22;702;49.466;11.086;2023-07-29T08:12:34;19.30;99.90
1415;DHT22;702;49.466;11.086;2023-07-29T08:15:04;19.10;99.90
1415;DHT22;702;49.466;11.086;2023-07-29T08:17:32;19.00;99.90
1415;DHT22;702;49.466;11.086;2023-07-29T08:19:59;18.90;99.90
1415;DHT22;702;49.466;11.086;2023-07-29T08:22:26;18.90;99.90
1415;DHT22;702;49.466;11.086;2023-07-29T08:24:54;18.90;99.90
1415;DHT22;702;49.466;11.086;2023-07-29T08:27:21;18.90;99.90
1415;DHT22;702;49.466;11.086;2023-07-29T08:29:48;18.90;99.90
1415;DHT22;702;49.466;11.086;2023-07-29T08:32:17;18.90;99.90
1415;DHT22;702;49.466;11.086;2023-07-29T08:34:47;18.80;99.90
1415;DHT22;702;49.466;11.086;2023-07-29T08:37:14;18.70;99.90
1415;DHT22;702;49.466;11.086;2023-07-29T08:39:42;18.60;99.90
1415;DHT22;702;49.466;11.086;2023-07-29T08:42:11;18.60;99.90
1415;DHT22;702;49.466;11.086;2023-07-29T08:44:41;18.60;99.90
1415;DHT22;702;49.466;11.086;2023-07-29T08:47:09;18.60;99.90
1415;DHT22;702;49.466;11.086;2023-07-29T08:49:38;18.60;99.90
1415;DHT22;702;49.466;11.086;2023-07-29T08:52:07;18.50;99.90
1415;DHT22;702;49.466;11.086;2023-07-29T08:54:35;18.50;99.90
1415;DHT22;702;49.466;11.086;2023-07-29T08:57:02;18.50;99.90
1415;DHT22;702;49.466;11.086;2023-07-29T08:59:31;18.50;99.90
1415;DHT22;702;49.466;11.086;2023-07-29T09:02:00;18.60;99.90
1415;DHT22;702;49.466;11.086;2023-07-29T09:04:28;18.60;99.90
1415;DHT22;702;49.466;11.086;2023-07-29T09:06:56;18.70;99.90
1415;DHT22;702;49.466;11.086;2023-07-29T09:09:25;18.80;99.90
1415;DHT22;702;49.466;11.086;2023-07-29T09:11:53;18.90;99.90
1415;DHT22;702;49.466;11.086;2023-07-29T09:14:20;19.10;99.90
1415;DHT22;702;49.466;11.086;2023-07-29T09:16:48;19.20;99.90
1415;DHT22;702;49.466;11.086;2023-07-29T09:19:16;19.30;99.90
1415;DHT22;702;49.466;11.086;2023-07-29T09:21:43;19.40;99.90
1415;DHT22;702;49.466;11.086;2023-07-29T09:24:16;19.40;99.90
1415;DHT22;702;49.466;11.086;2023-07-29T09:26:49;19.30;99.90
1415;DHT22;702;49.466;11.086;2023-07-29T09:29:22;19.50;99.90
1415;DHT22;702;49.466;11.086;2023-07-29T09:31:50;19.40;99.90
1415;DHT22;702;49.466;11.086;2023-07-29T09:34:17;19.40;99.90
1415;DHT22;702;49.466;11.086;2023-07-29T09:36:45;19.20;99.90
1415;DHT22;702;49.466;11.086;2023-07-29T09:39:16;19.10;99.90
1415;DHT22;702;49.466;11.086;2023-07-29T09:41:47;19.30;99.90
1415;DHT22;702;49.466;11.086;2023-07-29T09:44:15;19.30;99.90
1415;DHT22;702;49.466;11.086;2023-07-29T09:46:46;19.40;99.90
1415;DHT22;702;49.466;11.086;2023-07-29T09:49:13;19.40;99.90
1415;DHT22;702;49.466;11.086;2023-07-29T09:51:40;19.60;99.90
1415;DHT22;702;49.466;11.086;2023-07-29T09:54:08;19.80;99.90
1415;DHT22;702;49.466;11.086;2023-07-29T09:56:41;20.10;99.90
1415;DHT22;702;49.466;11.086;2023-07-29T09:59:09;20.30;99.90
1415;DHT22;702;49.466;11.086;2023-07-29T10:01:37;20.70;99.90
1415;DHT22;702;49.466;11.086;2023-07-29T10:04:05;21.00;98.80
1415;DHT22;702;49.466;11.086;2023-07-29T10:06:34;21.40;97.30
1415;DHT22;702;49.466;11.086;2023-07-29T10:09:02;21.80;95.80
1415;DHT22;702;49.466;11.086;2023-07-29T10:11:30;22.20;94.70
1415;DHT22;702;49.466;11.086;2023-07-29T10:14:00;22.50;94.10
1415;DHT22;702;49.466;11.086;2023-07-29T10:16:28;22.50;93.90
1415;DHT22;702;49.466;11.086;2023-07-29T10:18:57;22.50;93.80
1415;DHT22;702;49.466;11.086;2023-07-29T10:21:24;22.70;93.60
1415;DHT22;702;49.466;11.086;2023-07-29T10:23:53;23.00;93.60
1415;DHT22;702;49.466;11.086;2023-07-29T10:26:23;23.30;93.40
1415;DHT22;702;49.466;11.086;2023-07-29T10:28:52;23.70;92.40
1415;DHT22;702;49.466;11.086;2023-07-29T10:31:22;24.00;91.90
1415;DHT22;702;49.466;11.086;2023-07-29T10:33:52;24.30;91.50
1415;DHT22;702;49.466;11.086;2023-07-29T10:36:21;24.50;91.20
1415;DHT22;702;49.466;11.086;2023-07-29T10:38:48;24.70;90.90
1415;DHT22;702;49.466;11.086;2023-07-29T10:41:16;24.90;90.50
1415;DHT22;702;49.466;11.086;2023-07-29T10:43:43;24.90;90.30
1415;DHT22;702;49.466;11.086;2023-07-29T10:46:17;24.40;90.40
1415;DHT22;702;49.466;11.086;2023-07-29T10:48:54;24.00;90.80
1415;DHT22;702;49.466;11.086;2023-07-29T10:51:23;23.70;90.70
1415;DHT22;702;49.466;11.086;2023-07-29T10:53:55;23.60;90.90
1415;DHT22;702;49.466;11.086;2023-07-29T10:56:26;23.90;90.90
1415;DHT22;702;49.466;11.086;2023-07-29T10:59:02;24.40;90.80
1415;DHT22;702;49.466;11.086;2023-07-29T11:01:51;25.10;90.00
1415;DHT22;702;49.466;11.086;2023-07-29T11:04:27;25.70;89.40
1415;DHT22;702;49.466;11.086;2023-07-29T11:07:19;26.10;87.40
1415;DHT22;702;49.466;11.086;2023-07-29T11:09:58;26.60;87.50
1415;DHT22;702;49.466;11.086;2023-07-29T11:12:39;26.80;86.40
1415;DHT22;702;49.466;11.086;2023-07-29T11:15:20;25.90;85.60
1415;DHT22;702;49.466;11.086;2023-07-29T11:17:50;25.70;86.40
1415;DHT22;702;49.466;11.086;2023-07-29T11:20:21;25.60;86.20
1415;DHT22;702;49.466;11.086;2023-07-29T11:22:50;25.20;85.80
1415;DHT22;702;49.466;11.086;2023-07-29T11:25:20;25.20;86.50
1415;DHT22;702;49.466;11.086;2023-07-29T11:27:50;25.30;87.00
1415;DHT22;702;49.466;11.086;2023-07-29T11:30:18;25.00;85.60
1415;DHT22;702;49.466;11.086;2023-07-29T11:32:46;24.90;86.20
1415;DHT22;702;49.466;11.086;2023-07-29T11:35:15;24.70;85.40
1415;DHT22;702;49.466;11.086;2023-07-29T11:37:46;24.70;85.60
1415;DHT22;702;49.466;11.086;2023-07-29T11:40:15;24.80;86.00
1415;DHT22;702;49.466;11.086;2023-07-29T11:42:44;25.00;85.50
1415;DHT22;702;49.466;11.086;2023-07-29T11:45:12;24.90;86.30
1415;DHT22;702;49.466;11.086;2023-07-29T11:47:40;25.00;85.20
1415;DHT22;702;49.466;11.086;2023-07-29T11:50:10;25.30;85.40
1415;DHT22;702;49.466;11.086;2023-07-29T11:52:40;25.50;85.40
1415;DHT22;702;49.466;11.086;2023-07-29T11:55:12;25.50;85.30
1415;DHT22;702;49.466;11.086;2023-07-29T11:57:41;25.30;85.80
1415;DHT22;702;49.466;11.086;2023-07-29T12:00:11;25.30;85.30
1415;DHT22;702;49.466;11.086;2023-07-29T12:02:42;25.70;84.10
1415;DHT22;702;49.466;11.086;2023-07-29T12:05:12;25.50;84.00
1415;DHT22;702;49.466;11.086;2023-07-29T12:07:42;25.40;84.50
1415;DHT22;702;49.466;11.086;2023-07-29T12:10:11;25.40;84.60
1415;DHT22;702;49.466;11.086;2023-07-29T12:12:44;25.40;84.30
1415;DHT22;702;49.466;11.086;2023-07-29T12:15:12;25.40;84.40
1415;DHT22;702;49.466;11.086;2023-07-29T12:17:40;25.20;84.60
1415;DHT22;702;49.466;11.086;2023-07-29T12:20:10;24.80;85.30
1415;DHT22;702;49.466;11.086;2023-07-29T12:22:38;24.80;85.60
1415;DHT22;702;49.466;11.086;2023-07-29T12:25:06;24.80;85.60
1415;DHT22;702;49.466;11.086;2023-07-29T12:27:35;24.80;85.50
1415;DHT22;702;49.466;11.086;2023-07-29T12:30:03;25.00;83.70
1415;DHT22;702;49.466;11.086;2023-07-29T12:32:31;25.10;84.10
1415;DHT22;702;49.466;11.086;2023-07-29T12:34:58;25.20;83.80
1415;DHT22;702;49.466;11.086;2023-07-29T12:37:31;25.00;83.60
1415;DHT22;702;49.466;11.086;2023-07-29T12:39:59;25.10;83.80
1415;DHT22;702;49.466;11.086;2023-07-29T12:42:26;24.80;82.20
1415;DHT22;702;49.466;11.086;2023-07-29T12:44:55;24.90;83.70
1415;DHT22;702;49.466;11.086;2023-07-29T12:47:23;25.40;83.30
1415;DHT22;702;49.466;11.086;2023-07-29T12:49:50;26.00;82.40
1415;DHT22;702;49.466;11.086;2023-07-29T12:52:17;26.20;81.00
1415;DHT22;702;49.466;11.086;2023-07-29T12:54:44;26.10;80.10
1415;DHT22;702;49.466;11.086;2023-07-29T12:57:11;26.20;79.60
1415;DHT22;702;49.466;11.086;2023-07-29T12:59:39;26.60;79.00
1415;DHT22;702;49.466;11.086;2023-07-29T13:02:07;26.80;78.70
1415;DHT22;702;49.466;11.086;2023-07-29T13:04:35;26.60;77.40
1415;DHT22;702;49.466;11.086;2023-07-29T13:07:02;26.20;77.50
1415;DHT22;702;49.466;11.086;2023-07-29T13:09:30;26.10;77.50
1415;DHT22;702;49.466;11.086;2023-07-29T13:11:58;26.00;77.10
1415;DHT22;702;49.466;11.086;2023-07-29T13:14:25;26.10;77.50
1415;DHT22;702;49.466;11.086;2023-07-29T13:16:52;26.30;76.40
1415;DHT22;702;49.466;11.086;2023-07-29T13:19:21;26.30;76.90
1415;DHT22;702;49.466;11.086;2023-07-29T13:21:48;26.40;77.00
1415;DHT22;702;49.466;11.086;2023-07-29T13:24:15;26.40;76.30
1415;DHT22;702;49.466;11.086;2023-07-29T13:26:43;26.40;75.90
1415;DHT22;702;49.466;11.086;2023-07-29T13:29:10;26.20;76.30
1415;DHT22;702;49.466;11.086;2023-07-29T13:31:37;26.20;76.10
1415;DHT22;702;49.466;11.086;2023-07-29T13:34:05;26.00;74.80
1415;DHT22;702;49.466;11.086;2023-07-29T13:36:33;25.80;75.30
1415;DHT22;702;49.466;11.086;2023-07-29T13:39:00;25.80;74.80
1415;DHT22;702;49.466;11.086;2023-07-29T13:41:28;26.00;75.20
1415;DHT22;702;49.466;11.086;2023-07-29T13:43:55;26.40;74.20
1415;DHT22;702;49.466;11.086;2023-07-29T13:46:22;26.30;74.60
1415;DHT22;702;49.466;11.086;2023-07-29T13:48:48;26.40;73.60
1415;DHT22;702;49.466;11.086;2023-07-29T13:51:16;26.20;74.00
1415;DHT22;702;49.466;11.086;2023-07-29T13:53:44;25.90;75.00
1415;DHT22;702;49.466;11.086;2023-07-29T13:56:12;26.10;75.00
1415;DHT22;702;49.466;11.086;2023-07-29T13:58:39;26.20;75.00
1415;DHT22;702;49.466;11.086;2023-07-29T14:01:07;26.30;75.00
1415;DHT22;702;49.466;11.086;2023-07-29T14:03:34;26.20;74.90
1415;DHT22;702;49.466;11.086;2023-07-29T14:06:01;26.20;74.70
1415;DHT22;702;49.466;11.086;2023-07-29T14:08:30;26.50;74.30
1415;DHT22;702;49.466;11.086;2023-07-29T14:10:59;26.60;73.30
1415;DHT22;702;49.466;11.086;2023-07-29T14:13:26;26.50;73.30
1415;DHT22;702;49.466;11.086;2023-07-29T14:15:54;26.50;73.00
1415;DHT22;702;49.466;11.086;2023-07-29T14:18:21;26.80;71.80
1415;DHT22;702;49.466;11.086;2023-07-29T14:20:48;26.70;71.90
1415;DHT22;702;49.466;11.086;2023-07-29T14:23:18;26.80;71.90
1415;DHT22;702;49.466;11.086;2023-07-29T14:25:45;26.80;71.20
1415;DHT22;702;49.466;11.086;2023-07-29T14:28:14;26.70;71.60
1415;DHT22;702;49.466;11.086;2023-07-29T14:30:41;26.60;70.60
1415;DHT22;702;49.466;11.086;2023-07-29T14:33:08;26.30;70.70
1415;DHT22;702;49.466;11.086;2023-07-29T14:35:36;26.30;70.00
1415;DHT22;702;49.466;11.086;2023-07-29T14:38:03;26.40;70.00
1415;DHT22;702;49.466;11.086;2023-07-29T14:40:30;26.20;70.00
1415;DHT22;702;49.466;11.086;2023-07-29T14:42:58;26.10;69.30
1415;DHT22;702;49.466;11.086;2023-07-29T14:45:26;26.30;69.80
1415;DHT22;702;49.466;11.086;2023-07-29T14:47:54;26.50;69.50
1415;DHT22;702;49.466;11.086;2023-07-29T14:50:21;26.80;68.80
1415;DHT22;702;49.466;11.086;2023-07-29T14:52:48;27.00;68.90
1415;DHT22;702;49.466;11.086;2023-07-29T14:55:16;27.20;68.30
1415;DHT22;702;49.466;11.086;2023-07-29T14:57:43;27.30;68.50
1415;DHT22;702;49.466;11.086;2023-07-29T15:00:12;27.20;67.90
1415;DHT22;702;49.466;11.086;2023-07-29T15:02:42;26.80;67.70
1415;DHT22;702;49.466;11.086;2023-07-29T15:05:09;26.50;68.30
1415;DHT22;702;49.466;11.086;2023-07-29T15:07:37;26.30;67.60
1415;DHT22;702;49.466;11.086;2023-07-29T15:10:05;26.30;68.10
1415;DHT22;702;49.466;11.086;2023-07-29T15:12:32;26.10;67.10
1415;DHT22;702;49.466;11.086;2023-07-29T15:15:00;26.10;67.30
1415;DHT22;702;49.466;11.086;2023-07-29T15:17:27;26.50;66.90
1415;DHT22;702;49.466;11.086;2023-07-29T15:19:56;26.60;66.70
1415;DHT22;702;49.466;11.086;2023-07-29T15:22:24;26.60;66.10
1415;DHT22;702;49.466;11.086;2023-07-29T15:24:51;26.50;66.80
1415;DHT22;702;49.466;11.086;2023-07-29T15:27:18;26.30;66.40
1415;DHT22;702;49.466;11.086;2023-07-29T15:29:45;26.30;66.30
1415;DHT22;702;49.466;11.086;2023-07-29T15:32:12;26.20;66.80
1415;DHT22;702;49.466;11.086;2023-07-29T15:34:40;26.10;67.10
1415;DHT22;702;49.466;11.086;2023-07-29T15:37:09;25.90;65.80
1415;DHT22;702;49.466;11.086;2023-07-29T15:39:36;25.90;65.30
1415;DHT22;702;49.466;11.086;2023-07-29T15:42:04;26.10;65.40
1415;DHT22;702;49.466;11.086;2023-07-29T15:44:32;26.20;65.60
1415;DHT22;702;49.466;11.086;2023-07-29T15:46:59;26.20;64.70
1415;DHT22;702;49.466;11.086;2023-07-29T15:49:26;26.20;64.50
1415;DHT22;702;49.466;11.086;2023-07-29T15:51:53;26.10;64.50
1415;DHT22;702;49.466;11.086;2023-07-29T15:54:22;26.10;64.60
1415;DHT22;702;49.466;11.086;2023-07-29T15:56:49;26.10;64.30
1415;DHT22;702;49.466;11.086;2023-07-29T15:59:16;26.20;63.30
1415;DHT22;702;49.466;11.086;2023-07-29T16:01:44;25.90;62.30
1415;DHT22;702;49.466;11.086;2023-07-29T16:04:11;25.80;62.80
1415;DHT22;702;49.466;11.086;2023-07-29T16:06:38;25.80;62.90
1415;DHT22;702;49.466;11.086;2023-07-29T16:09:06;25.70;62.80